sensor_id;sensor_type;location;lat;lon;timestamp;P1;durP1;ratioP1;P2;durP2;ratioP2
46551;SDS011;32278;51.810;4.712;2022-07-06T00:01:46;3.60;;;1.15;;
46551;SDS011;32278;51.810;4.712;2022-07-06T00:04:12;4.03;;;1.23;;
46551;SDS011;32278;51.810;4.712;2022-07-06T00:06:38;4.95;;;1.20;;
46551;SDS011;32278;51.810;4.712;2022-07-06T00:09:04;4.32;;;1.52;;
46551;SDS011;32278;51.810;4.712;2022-07-06T00:11:30;2.67;;;1.25;;
46551;SDS011;32278;51.810;4.712;2022-07-06T00:13:56;7.13;;;1.90;;
46551;SDS011;32278;51.810;4.712;2022-07-06T00:16:22;3.85;;;1.60;;
46551;SDS011;32278;51.810;4.712;2022-07-06T00:18:48;2.05;;;1.42;;
46551;SDS011;32278;51.810;4.712;2022-07-06T00:21:14;4.60;;;2.05;;
46551;SDS011;32278;51.810;4.712;2022-07-06T00:23:40;6.28;;;2.30;;
46551;SDS011;32278;51.810;4.712;2022-07-06T00:26:05;12.52;;;4.10;;
46551;SDS011;32278;51.810;4.712;2022-07-06T00:28:31;9.88;;;4.20;;
46551;SDS011;32278;51.810;4.712;2022-07-06T00:30:56;15.80;;;5.47;;
46551;SDS011;32278;51.810;4.712;2022-07-06T00:33:22;16.42;;;5.82;;
46551;SDS011;32278;51.810;4.712;2022-07-06T00:35:48;13.40;;;4.93;;
46551;SDS011;32278;51.810;4.712;2022-07-06T00:38:14;16.63;;;6.15;;
46551;SDS011;32278;51.810;4.712;2022-07-06T00:40:40;17.70;;;5.85;;
46551;SDS011;32278;51.810;4.712;2022-07-06T00:43:05;14.55;;;5.95;;
46551;SDS011;32278;51.810;4.712;2022-07-06T00:45:31;15.63;;;6.05;;
46551;SDS011;32278;51.810;4.712;2022-07-06T00:47:57;15.35;;;5.50;;
46551;SDS011;32278;51.810;4.712;2022-07-06T00:50:22;15.00;;;3.30;;
46551;SDS011;32278;51.810;4.712;2022-07-06T00:52:49;8.68;;;3.25;;
46551;SDS011;32278;51.810;4.712;2022-07-06T00:55:17;12.50;;;4.90;;
46551;SDS011;32278;51.810;4.712;2022-07-06T00:57:45;10.65;;;4.05;;
46551;SDS011;32278;51.810;4.712;2022-07-06T01:00:12;9.23;;;3.28;;
46551;SDS011;32278;51.810;4.712;2022-07-06T01:02:39;5.63;;;2.45;;
46551;SDS011;32278;51.810;4.712;2022-07-06T01:05:05;8.05;;;3.00;;
46551;SDS011;32278;51.810;4.712;2022-07-06T01:07:33;7.95;;;2.97;;
46551;SDS011;32278;51.810;4.712;2022-07-06T01:09:59;10.30;;;2.30;;
46551;SDS011;32278;51.810;4.712;2022-07-06T01:12:25;5.70;;;1.85;;
46551;SDS011;32278;51.810;4.712;2022-07-06T01:14:51;6.85;;;1.90;;
46551;SDS011;32278;51.810;4.712;2022-07-06T01:17:17;4.28;;;1.90;;
46551;SDS011;32278;51.810;4.712;2022-07-06T01:19:44;5.18;;;1.65;;
46551;SDS011;32278;51.810;4.712;2022-07-06T01:22:09;7.53;;;1.73;;
46551;SDS011;32278;51.810;4.712;2022-07-06T01:24:36;4.22;;;1.30;;
46551;SDS011;32278;51.810;4.712;2022-07-06T01:27:03;4.05;;;1.58;;
46551;SDS011;32278;51.810;4.712;2022-07-06T01:29:29;1.55;;;1.15;;
46551;SDS011;32278;51.810;4.712;2022-07-06T01:31:55;6.10;;;1.98;;
46551;SDS011;32278;51.810;4.712;2022-07-06T01:34:21;3.25;;;1.08;;
46551;SDS011;32278;51.810;4.712;2022-07-06T01:36:46;4.80;;;1.70;;
46551;SDS011;32278;51.810;4.712;2022-07-06T01:39:12;2.28;;;1.15;;
46551;SDS011;32278;51.810;4.712;2022-07-06T01:41:38;3.45;;;1.55;;
46551;SDS011;32278;51.810;4.712;2022-07-06T01:44:04;4.50;;;1.30;;
46551;SDS011;32278;51.810;4.712;2022-07-06T01:46:30;3.63;;;1.50;;
46551;SDS011;32278;51.810;4.712;2022-07-06T01:48:56;3.67;;;1.27;;
46551;SDS011;32278;51.810;4.712;2022-07-06T01:51:22;3.42;;;1.30;;
46551;SDS011;32278;51.810;4.712;2022-07-06T01:53:48;2.55;;;1.48;;
46551;SDS011;32278;51.810;4.712;2022-07-06T01:56:14;4.10;;;1.30;;
46551;SDS011;32278;51.810;4.712;2022-07-06T01:58:40;5.38;;;1.60;;
46551;SDS011;32278;51.810;4.712;2022-07-06T02:01:09;7.30;;;1.55;;
46551;SDS011;32278;51.810;4.712;2022-07-06T02:03:38;3.72;;;1.33;;
46551;SDS011;32278;51.810;4.712;2022-07-06T02:06:04;3.50;;;1.60;;
46551;SDS011;32278;51.810;4.712;2022-07-06T02:08:31;6.22;;;2.05;;
46551;SDS011;32278;51.810;4.712;2022-07-06T02:10:58;3.20;;;1.90;;
46551;SDS011;32278;51.810;4.712;2022-07-06T02:13:24;6.88;;;1.83;;
46551;SDS011;32278;51.810;4.712;2022-07-06T02:15:50;4.15;;;1.58;;
46551;SDS011;32278;51.810;4.712;2022-07-06T02:18:16;5.43;;;1.55;;
46551;SDS011;32278;51.810;4.712;2022-07-06T02:20:41;2.75;;;1.33;;
46551;SDS011;32278;51.810;4.712;2022-07-06T02:23:07;6.18;;;1.90;;
46551;SDS011;32278;51.810;4.712;2022-07-06T02:25:33;5.45;;;1.70;;
46551;SDS011;32278;51.810;4.712;2022-07-06T02:27:59;6.07;;;2.17;;
46551;SDS011;32278;51.810;4.712;2022-07-06T02:30:25;5.30;;;1.83;;
46551;SDS011;32278;51.810;4.712;2022-07-06T02:32:50;3.15;;;1.65;;
46551;SDS011;32278;51.810;4.712;2022-07-06T02:35:16;2.90;;;1.88;;
46551;SDS011;32278;51.810;4.712;2022-07-06T02:37:41;2.95;;;2.10;;
46551;SDS011;32278;51.810;4.712;2022-07-06T02:40:07;7.30;;;2.50;;
46551;SDS011;32278;51.810;4.712;2022-07-06T02:42:34;4.53;;;2.10;;
46551;SDS011;32278;51.810;4.712;2022-07-06T02:45:00;3.67;;;1.90;;
46551;SDS011;32278;51.810;4.712;2022-07-06T02:47:25;3.38;;;1.80;;
46551;SDS011;32278;51.810;4.712;2022-07-06T02:49:51;2.90;;;1.95;;
46551;SDS011;32278;51.810;4.712;2022-07-06T02:52:18;5.47;;;2.20;;
46551;SDS011;32278;51.810;4.712;2022-07-06T02:54:44;7.50;;;2.72;;
46551;SDS011;32278;51.810;4.712;2022-07-06T02:57:09;4.63;;;2.47;;
46551;SDS011;32278;51.810;4.712;2022-07-06T02:59:35;9.60;;;2.60;;
46551;SDS011;32278;51.810;4.712;2022-07-06T03:02:02;4.30;;;2.40;;
46551;SDS011;32278;51.810;4.712;2022-07-06T03:04:28;4.22;;;1.90;;
46551;SDS011;32278;51.810;4.712;2022-07-06T03:06:54;5.05;;;2.20;;
46551;SDS011;32278;51.810;4.712;2022-07-06T03:09:20;4.05;;;2.22;;
46551;SDS011;32278;51.810;4.712;2022-07-06T03:11:46;3.72;;;2.10;;
46551;SDS011;32278;51.810;4.712;2022-07-06T03:14:12;5.82;;;2.33;;
46551;SDS011;32278;51.810;4.712;2022-07-06T03:16:38;4.25;;;2.10;;
46551;SDS011;32278;51.810;4.712;2022-07-06T03:19:03;3.83;;;2.20;;
46551;SDS011;32278;51.810;4.712;2022-07-06T03:21:29;4.68;;;2.00;;
46551;SDS011;32278;51.810;4.712;2022-07-06T03:23:55;4.88;;;2.22;;
46551;SDS011;32278;51.810;4.712;2022-07-06T03:26:20;4.20;;;2.25;;
46551;SDS011;32278;51.810;4.712;2022-07-06T03:28:46;5.03;;;2.20;;
46551;SDS011;32278;51.810;4.712;2022-07-06T03:31:12;4.30;;;2.47;;
46551;SDS011;32278;51.810;4.712;2022-07-06T03:33:38;4.47;;;2.42;;
46551;SDS011;32278;51.810;4.712;2022-07-06T03:36:04;6.38;;;2.65;;
46551;SDS011;32278;51.810;4.712;2022-07-06T03:38:30;5.18;;;2.53;;
46551;SDS011;32278;51.810;4.712;2022-07-06T03:40:56;5.53;;;2.20;;
46551;SDS011;32278;51.810;4.712;2022-07-06T03:43:21;6.05;;;2.30;;
46551;SDS011;32278;51.810;4.712;2022-07-06T03:45:47;4.28;;;2.20;;
46551;SDS011;32278;51.810;4.712;2022-07-06T03:48:13;2.72;;;1.70;;
46551;SDS011;32278;51.810;4.712;2022-07-06T03:50:38;2.88;;;1.90;;
46551;SDS011;32278;51.810;4.712;2022-07-06T03:53:04;5.88;;;2.28;;
46551;SDS011;32278;51.810;4.712;2022-07-06T03:55:30;6.68;;;2.30;;
46551;SDS011;32278;51.810;4.712;2022-07-06T03:57:55;4.03;;;2.22;;
46551;SDS011;32278;51.810;4.712;2022-07-06T04:00:21;2.28;;;1.88;;
46551;SDS011;32278;51.810;4.712;2022-07-06T04:02:47;2.40;;;2.00;;
46551;SDS011;32278;51.810;4.712;2022-07-06T04:05:13;6.65;;;2.30;;
46551;SDS011;32278;51.810;4.712;2022-07-06T04:07:38;6.93;;;2.35;;
46551;SDS011;32278;51.810;4.712;2022-07-06T04:10:04;4.65;;;1.80;;
46551;SDS011;32278;51.810;4.712;2022-07-06T04:12:30;3.17;;;1.70;;
46551;SDS011;32278;51.810;4.712;2022-07-06T04:14:56;5.72;;;2.38;;
46551;SDS011;32278;51.810;4.712;2022-07-06T04:17:22;3.95;;;2.70;;
46551;SDS011;32278;51.810;4.712;2022-07-06T04:20:08;5.82;;;1.75;;
46551;SDS011;32278;51.810;4.712;2022-07-06T04:22:36;4.85;;;2.22;;
46551;SDS011;32278;51.810;4.712;2022-07-06T04:25:05;2.35;;;1.50;;
46551;SDS011;32278;51.810;4.712;2022-07-06T04:27:31;6.78;;;2.15;;
46551;SDS011;32278;51.810;4.712;2022-07-06T04:29:57;5.10;;;1.40;;
46551;SDS011;32278;51.810;4.712;2022-07-06T04:32:22;4.97;;;1.77;;
46551;SDS011;32278;51.810;4.712;2022-07-06T04:34:48;3.38;;;1.70;;
46551;SDS011;32278;51.810;4.712;2022-07-06T04:37:13;4.30;;;1.60;;
46551;SDS011;32278;51.810;4.712;2022-07-06T04:39:39;2.70;;;1.60;;
46551;SDS011;32278;51.810;4.712;2022-07-06T04:42:05;3.25;;;1.42;;
46551;SDS011;32278;51.810;4.712;2022-07-06T04:44:30;3.95;;;1.77;;
46551;SDS011;32278;51.810;4.712;2022-07-06T04:46:56;7.60;;;1.80;;
46551;SDS011;32278;51.810;4.712;2022-07-06T04:49:21;5.38;;;2.03;;
46551;SDS011;32278;51.810;4.712;2022-07-06T04:51:47;2.95;;;1.70;;
46551;SDS011;32278;51.810;4.712;2022-07-06T04:54:13;4.38;;;3.35;;
46551;SDS011;32278;51.810;4.712;2022-07-06T04:56:38;4.78;;;1.90;;
46551;SDS011;32278;51.810;4.712;2022-07-06T04:59:04;4.95;;;1.65;;
46551;SDS011;32278;51.810;4.712;2022-07-06T05:01:29;7.63;;;1.77;;
46551;SDS011;32278;51.810;4.712;2022-07-06T05:03:55;5.90;;;2.05;;
46551;SDS011;32278;51.810;4.712;2022-07-06T05:06:21;6.00;;;2.25;;
46551;SDS011;32278;51.810;4.712;2022-07-06T05:08:46;4.50;;;1.27;;
46551;SDS011;32278;51.810;4.712;2022-07-06T05:11:12;4.65;;;1.48;;
46551;SDS011;32278;51.810;4.712;2022-07-06T05:13:37;4.15;;;1.15;;
46551;SDS011;32278;51.810;4.712;2022-07-06T05:16:06;2.47;;;1.15;;
46551;SDS011;32278;51.810;4.712;2022-07-06T05:18:31;3.00;;;1.25;;
46551;SDS011;32278;51.810;4.712;2022-07-06T05:20:57;2.75;;;1.48;;
46551;SDS011;32278;51.810;4.712;2022-07-06T05:23:23;2.83;;;1.15;;
46551;SDS011;32278;51.810;4.712;2022-07-06T05:25:48;4.72;;;1.55;;
46551;SDS011;32278;51.810;4.712;2022-07-06T05:28:14;5.03;;;1.20;;
46551;SDS011;32278;51.810;4.712;2022-07-06T05:30:39;4.20;;;1.15;;
46551;SDS011;32278;51.810;4.712;2022-07-06T05:33:05;2.25;;;1.33;;
46551;SDS011;32278;51.810;4.712;2022-07-06T05:35:31;3.97;;;0.80;;
46551;SDS011;32278;51.810;4.712;2022-07-06T05:37:56;4.07;;;0.85;;
46551;SDS011;32278;51.810;4.712;2022-07-06T05:40:22;2.55;;;1.02;;
46551;SDS011;32278;51.810;4.712;2022-07-06T05:42:47;5.13;;;1.33;;
46551;SDS011;32278;51.810;4.712;2022-07-06T05:45:13;3.53;;;1.20;;
46551;SDS011;32278;51.810;4.712;2022-07-06T05:47:39;3.08;;;1.23;;
46551;SDS011;32278;51.810;4.712;2022-07-06T05:50:23;6.65;;;1.70;;
46551;SDS011;32278;51.810;4.712;2022-07-06T05:52:56;3.63;;;1.00;;
46551;SDS011;32278;51.810;4.712;2022-07-06T05:55:26;3.45;;;1.20;;
46551;SDS011;32278;51.810;4.712;2022-07-06T05:57:52;3.63;;;0.98;;
46551;SDS011;32278;51.810;4.712;2022-07-06T06:00:22;2.35;;;1.00;;
46551;SDS011;32278;51.810;4.712;2022-07-06T06:02:48;2.55;;;0.98;;
46551;SDS011;32278;51.810;4.712;2022-07-06T06:05:14;2.35;;;1.10;;
46551;SDS011;32278;51.810;4.712;2022-07-06T06:07:40;3.40;;;1.05;;
46551;SDS011;32278;51.810;4.712;2022-07-06T06:10:10;3.42;;;1.08;;
46551;SDS011;32278;51.810;4.712;2022-07-06T06:12:37;3.17;;;0.90;;
46551;SDS011;32278;51.810;4.712;2022-07-06T06:15:04;2.38;;;0.88;;
46551;SDS011;32278;51.810;4.712;2022-07-06T06:17:30;1.67;;;0.90;;
46551;SDS011;32278;51.810;4.712;2022-07-06T06:19:57;2.78;;;0.90;;
46551;SDS011;32278;51.810;4.712;2022-07-06T06:22:23;4.85;;;1.25;;
46551;SDS011;32278;51.810;4.712;2022-07-06T06:24:49;3.92;;;1.05;;
46551;SDS011;32278;51.810;4.712;2022-07-06T06:27:14;1.45;;;0.63;;
46551;SDS011;32278;51.810;4.712;2022-07-06T06:29:40;3.92;;;0.60;;
46551;SDS011;32278;51.810;4.712;2022-07-06T06:32:07;1.10;;;0.50;;
46551;SDS011;32278;51.810;4.712;2022-07-06T06:34:33;28.08;;;4.20;;
46551;SDS011;32278;51.810;4.712;2022-07-06T06:36:59;2.53;;;0.60;;
46551;SDS011;32278;51.810;4.712;2022-07-06T06:39:25;3.97;;;0.80;;
46551;SDS011;32278;51.810;4.712;2022-07-06T06:41:50;1.55;;;0.70;;
46551;SDS011;32278;51.810;4.712;2022-07-06T06:44:16;1.90;;;0.57;;
46551;SDS011;32278;51.810;4.712;2022-07-06T06:46:42;2.92;;;0.90;;
46551;SDS011;32278;51.810;4.712;2022-07-06T06:49:08;3.38;;;0.93;;
46551;SDS011;32278;51.810;4.712;2022-07-06T06:51:35;2.55;;;0.60;;
46551;SDS011;32278;51.810;4.712;2022-07-06T06:54:02;1.05;;;0.57;;
46551;SDS011;32278;51.810;4.712;2022-07-06T06:56:28;2.63;;;1.08;;
46551;SDS011;32278;51.810;4.712;2022-07-06T06:58:53;1.45;;;0.60;;
46551;SDS011;32278;51.810;4.712;2022-07-06T07:01:19;1.77;;;0.70;;
46551;SDS011;32278;51.810;4.712;2022-07-06T07:03:45;4.22;;;0.68;;
46551;SDS011;32278;51.810;4.712;2022-07-06T07:06:10;1.17;;;0.75;;
46551;SDS011;32278;51.810;4.712;2022-07-06T07:08:38;4.05;;;0.93;;
46551;SDS011;32278;51.810;4.712;2022-07-06T07:11:04;2.25;;;0.50;;
46551;SDS011;32278;51.810;4.712;2022-07-06T07:13:29;1.25;;;0.80;;
46551;SDS011;32278;51.810;4.712;2022-07-06T07:15:55;3.05;;;0.82;;
46551;SDS011;32278;51.810;4.712;2022-07-06T07:18:20;4.53;;;1.00;;
46551;SDS011;32278;51.810;4.712;2022-07-06T07:20:46;1.95;;;0.65;;
46551;SDS011;32278;51.810;4.712;2022-07-06T07:23:11;0.70;;;0.50;;
46551;SDS011;32278;51.810;4.712;2022-07-06T07:25:37;1.60;;;0.70;;
46551;SDS011;32278;51.810;4.712;2022-07-06T07:28:05;2.03;;;0.60;;
46551;SDS011;32278;51.810;4.712;2022-07-06T07:30:31;3.97;;;0.75;;
46551;SDS011;32278;51.810;4.712;2022-07-06T07:32:57;0.77;;;0.50;;
46551;SDS011;32278;51.810;4.712;2022-07-06T07:35:25;2.58;;;0.43;;
46551;SDS011;32278;51.810;4.712;2022-07-06T07:37:51;3.72;;;0.70;;
46551;SDS011;32278;51.810;4.712;2022-07-06T07:40:17;2.28;;;0.63;;
46551;SDS011;32278;51.810;4.712;2022-07-06T07:42:42;1.92;;;0.75;;
46551;SDS011;32278;51.810;4.712;2022-07-06T07:45:09;3.83;;;0.82;;
46551;SDS011;32278;51.810;4.712;2022-07-06T07:47:35;5.90;;;0.93;;
46551;SDS011;32278;51.810;4.712;2022-07-06T07:50:00;2.92;;;0.80;;
46551;SDS011;32278;51.810;4.712;2022-07-06T07:52:26;2.15;;;0.75;;
46551;SDS011;32278;51.810;4.712;2022-07-06T07:54:51;2.63;;;0.60;;
46551;SDS011;32278;51.810;4.712;2022-07-06T07:57:17;1.80;;;0.47;;
46551;SDS011;32278;51.810;4.712;2022-07-06T07:59:43;16.30;;;1.75;;
46551;SDS011;32278;51.810;4.712;2022-07-06T08:02:08;4.97;;;0.80;;
46551;SDS011;32278;51.810;4.712;2022-07-06T08:04:34;3.00;;;0.60;;
46551;SDS011;32278;51.810;4.712;2022-07-06T08:07:00;1.27;;;0.80;;
46551;SDS011;32278;51.810;4.712;2022-07-06T08:09:25;3.00;;;0.60;;
46551;SDS011;32278;51.810;4.712;2022-07-06T08:11:51;2.03;;;0.60;;
46551;SDS011;32278;51.810;4.712;2022-07-06T08:14:17;2.38;;;0.40;;
46551;SDS011;32278;51.810;4.712;2022-07-06T08:16:42;2.40;;;0.35;;
46551;SDS011;32278;51.810;4.712;2022-07-06T08:19:08;0.88;;;0.60;;
46551;SDS011;32278;51.810;4.712;2022-07-06T08:21:34;2.20;;;0.50;;
46551;SDS011;32278;51.810;4.712;2022-07-06T08:24:00;2.75;;;0.30;;
46551;SDS011;32278;51.810;4.712;2022-07-06T08:26:26;1.05;;;0.47;;
46551;SDS011;32278;51.810;4.712;2022-07-06T08:28:52;4.70;;;0.88;;
46551;SDS011;32278;51.810;4.712;2022-07-06T08:31:18;0.35;;;0.30;;
46551;SDS011;32278;51.810;4.712;2022-07-06T08:33:44;2.97;;;0.85;;
46551;SDS011;32278;51.810;4.712;2022-07-06T08:36:09;1.55;;;0.40;;
46551;SDS011;32278;51.810;4.712;2022-07-06T08:38:35;1.98;;;0.50;;
46551;SDS011;32278;51.810;4.712;2022-07-06T08:41:01;0.50;;;0.20;;
46551;SDS011;32278;51.810;4.712;2022-07-06T08:43:30;0.60;;;0.40;;
46551;SDS011;32278;51.810;4.712;2022-07-06T08:45:57;0.70;;;0.50;;
46551;SDS011;32278;51.810;4.712;2022-07-06T08:48:24;1.50;;;0.52;;
46551;SDS011;32278;51.810;4.712;2022-07-06T08:50:52;2.78;;;0.60;;
46551;SDS011;32278;51.810;4.712;2022-07-06T08:53:20;3.72;;;0.40;;
46551;SDS011;32278;51.810;4.712;2022-07-06T08:55:47;2.30;;;0.47;;
46551;SDS011;32278;51.810;4.712;2022-07-06T08:58:14;1.50;;;0.40;;
46551;SDS011;32278;51.810;4.712;2022-07-06T09:00:40;2.05;;;0.40;;
46551;SDS011;32278;51.810;4.712;2022-07-06T09:03:07;0.90;;;0.40;;
46551;SDS011;32278;51.810;4.712;2022-07-06T09:05:36;1.55;;;0.50;;
46551;SDS011;32278;51.810;4.712;2022-07-06T09:08:02;1.10;;;0.50;;
46551;SDS011;32278;51.810;4.712;2022-07-06T09:10:28;2.95;;;0.50;;
46551;SDS011;32278;51.810;4.712;2022-07-06T09:13:01;4.85;;;0.70;;
46551;SDS011;32278;51.810;4.712;2022-07-06T09:15:28;2.00;;;0.40;;
46551;SDS011;32278;51.810;4.712;2022-07-06T09:17:55;5.18;;;0.40;;
46551;SDS011;32278;51.810;4.712;2022-07-06T09:20:22;1.25;;;0.30;;
46551;SDS011;32278;51.810;4.712;2022-07-06T09:22:48;2.92;;;0.50;;
46551;SDS011;32278;51.810;4.712;2022-07-06T09:25:14;0.68;;;0.45;;
46551;SDS011;32278;51.810;4.712;2022-07-06T09:27:42;0.43;;;0.20;;
46551;SDS011;32278;51.810;4.712;2022-07-06T09:30:13;0.30;;;0.27;;
46551;SDS011;32278;51.810;4.712;2022-07-06T09:32:43;2.60;;;0.52;;
46551;SDS011;32278;51.810;4.712;2022-07-06T09:35:30;0.50;;;0.45;;
46551;SDS011;32278;51.810;4.712;2022-07-06T09:43:07;2.67;;;0.40;;
46551;SDS011;32278;51.810;4.712;2022-07-06T09:45:34;3.58;;;0.60;;
46551;SDS011;32278;51.810;4.712;2022-07-06T09:48:43;1.17;;;0.40;;
46551;SDS011;32278;51.810;4.712;2022-07-06T09:50:57;1.85;;;0.73;;
46551;SDS011;32278;51.810;4.712;2022-07-06T09:53:25;2.58;;;0.60;;
46551;SDS011;32278;51.810;4.712;2022-07-06T09:55:55;2.40;;;0.75;;
46551;SDS011;32278;51.810;4.712;2022-07-06T09:58:26;0.68;;;0.60;;
46551;SDS011;32278;51.810;4.712;2022-07-06T10:00:52;1.27;;;0.60;;
46551;SDS011;32278;51.810;4.712;2022-07-06T10:03:18;9.07;;;1.17;;
46551;SDS011;32278;51.810;4.712;2022-07-06T10:05:44;2.83;;;0.47;;
46551;SDS011;32278;51.810;4.712;2022-07-06T10:08:12;1.25;;;0.70;;
46551;SDS011;32278;51.810;4.712;2022-07-06T10:10:39;1.58;;;0.52;;
46551;SDS011;32278;51.810;4.712;2022-07-06T10:13:06;0.93;;;0.60;;
46551;SDS011;32278;51.810;4.712;2022-07-06T10:15:33;2.15;;;0.68;;
46551;SDS011;32278;51.810;4.712;2022-07-06T10:18:02;2.00;;;0.90;;
46551;SDS011;32278;51.810;4.712;2022-07-06T10:20:30;4.80;;;1.15;;
46551;SDS011;32278;51.810;4.712;2022-07-06T10:22:58;1.35;;;0.82;;
46551;SDS011;32278;51.810;4.712;2022-07-06T10:25:26;2.65;;;0.95;;
46551;SDS011;32278;51.810;4.712;2022-07-06T10:27:53;4.88;;;0.65;;
46551;SDS011;32278;51.810;4.712;2022-07-06T10:30:19;2.28;;;0.75;;
46551;SDS011;32278;51.810;4.712;2022-07-06T10:32:46;1.15;;;0.80;;
46551;SDS011;32278;51.810;4.712;2022-07-06T10:35:14;1.45;;;0.55;;
46551;SDS011;32278;51.810;4.712;2022-07-06T10:37:43;3.85;;;1.95;;
46551;SDS011;32278;51.810;4.712;2022-07-06T10:40:09;3.70;;;0.75;;
46551;SDS011;32278;51.810;4.712;2022-07-06T10:42:58;1.25;;;0.80;;
46551;SDS011;32278;51.810;4.712;2022-07-06T10:50:37;2.67;;;0.73;;
46551;SDS011;32278;51.810;4.712;2022-07-06T10:53:10;5.65;;;0.80;;
46551;SDS011;32278;51.810;4.712;2022-07-06T10:55:41;3.13;;;0.80;;
46551;SDS011;32278;51.810;4.712;2022-07-06T10:58:33;3.38;;;0.95;;
46551;SDS011;32278;51.810;4.712;2022-07-06T11:01:00;1.90;;;0.70;;
46551;SDS011;32278;51.810;4.712;2022-07-06T11:06:17;3.60;;;1.02;;
46551;SDS011;32278;51.810;4.712;2022-07-06T11:14:07;6.03;;;0.55;;
46551;SDS011;32278;51.810;4.712;2022-07-06T11:17:00;1.15;;;0.82;;
46551;SDS011;32278;51.810;4.712;2022-07-06T11:19:26;6.18;;;0.90;;
46551;SDS011;32278;51.810;4.712;2022-07-06T11:21:54;2.70;;;1.10;;
46551;SDS011;32278;51.810;4.712;2022-07-06T11:24:30;1.00;;;0.60;;
46551;SDS011;32278;51.810;4.712;2022-07-06T11:26:58;6.97;;;1.33;;
46551;SDS011;32278;51.810;4.712;2022-07-06T11:29:25;7.60;;;0.90;;
46551;SDS011;32278;51.810;4.712;2022-07-06T11:31:56;1.58;;;0.70;;
46551;SDS011;32278;51.810;4.712;2022-07-06T11:34:25;3.20;;;1.13;;
46551;SDS011;32278;51.810;4.712;2022-07-06T11:36:55;2.78;;;0.85;;
46551;SDS011;32278;51.810;4.712;2022-07-06T11:39:22;3.17;;;1.00;;
46551;SDS011;32278;51.810;4.712;2022-07-06T11:41:48;2.20;;;0.52;;
46551;SDS011;32278;51.810;4.712;2022-07-06T11:44:13;6.03;;;0.80;;
46551;SDS011;32278;51.810;4.712;2022-07-06T11:46:39;8.27;;;1.20;;
46551;SDS011;32278;51.810;4.712;2022-07-06T11:49:06;1.98;;;0.60;;
46551;SDS011;32278;51.810;4.712;2022-07-06T11:51:37;2.95;;;0.70;;
46551;SDS011;32278;51.810;4.712;2022-07-06T11:54:08;4.35;;;0.70;;
46551;SDS011;32278;51.810;4.712;2022-07-06T11:56:45;1.50;;;0.80;;
46551;SDS011;32278;51.810;4.712;2022-07-06T11:59:16;2.45;;;0.80;;
46551;SDS011;32278;51.810;4.712;2022-07-06T12:01:59;1.92;;;0.85;;
46551;SDS011;32278;51.810;4.712;2022-07-06T12:04:29;2.47;;;0.93;;
46551;SDS011;32278;51.810;4.712;2022-07-06T12:07:00;1.95;;;0.85;;
46551;SDS011;32278;51.810;4.712;2022-07-06T12:09:31;3.15;;;0.90;;
46551;SDS011;32278;51.810;4.712;2022-07-06T12:12:00;1.17;;;0.70;;
46551;SDS011;32278;51.810;4.712;2022-07-06T12:14:28;2.35;;;0.85;;
46551;SDS011;32278;51.810;4.712;2022-07-06T12:16:54;1.75;;;0.88;;
46551;SDS011;32278;51.810;4.712;2022-07-06T12:19:23;2.08;;;0.68;;
46551;SDS011;32278;51.810;4.712;2022-07-06T12:21:49;2.85;;;0.80;;
46551;SDS011;32278;51.810;4.712;2022-07-06T12:24:24;2.13;;;0.98;;
46551;SDS011;32278;51.810;4.712;2022-07-06T12:26:52;1.90;;;0.90;;
46551;SDS011;32278;51.810;4.712;2022-07-06T12:29:19;1.80;;;0.70;;
46551;SDS011;32278;51.810;4.712;2022-07-06T12:34:18;2.40;;;0.80;;
46551;SDS011;32278;51.810;4.712;2022-07-06T12:36:49;1.98;;;0.80;;
46551;SDS011;32278;51.810;4.712;2022-07-06T12:39:15;1.05;;;0.65;;
46551;SDS011;32278;51.810;4.712;2022-07-06T12:44:27;1.98;;;0.80;;
46551;SDS011;32278;51.810;4.712;2022-07-06T12:47:07;2.72;;;0.90;;
46551;SDS011;32278;51.810;4.712;2022-07-06T12:49:34;2.38;;;1.05;;
46551;SDS011;32278;51.810;4.712;2022-07-06T12:52:02;5.00;;;0.98;;
46551;SDS011;32278;51.810;4.712;2022-07-06T12:54:35;1.08;;;0.82;;
46551;SDS011;32278;51.810;4.712;2022-07-06T13:02:34;1.58;;;0.68;;
46551;SDS011;32278;51.810;4.712;2022-07-06T13:05:06;5.38;;;1.30;;
46551;SDS011;32278;51.810;4.712;2022-07-06T13:07:38;3.85;;;1.00;;
46551;SDS011;32278;51.810;4.712;2022-07-06T13:10:10;4.00;;;0.80;;
46551;SDS011;32278;51.810;4.712;2022-07-06T13:12:37;2.22;;;1.00;;
46551;SDS011;32278;51.810;4.712;2022-07-06T13:15:04;2.65;;;0.82;;
46551;SDS011;32278;51.810;4.712;2022-07-06T13:17:31;2.72;;;0.95;;
46551;SDS011;32278;51.810;4.712;2022-07-06T13:19:57;4.10;;;0.88;;
46551;SDS011;32278;51.810;4.712;2022-07-06T13:22:23;6.93;;;1.05;;
46551;SDS011;32278;51.810;4.712;2022-07-06T13:24:49;1.90;;;0.85;;
46551;SDS011;32278;51.810;4.712;2022-07-06T13:27:14;1.20;;;0.80;;
46551;SDS011;32278;51.810;4.712;2022-07-06T13:29:40;2.78;;;0.80;;
46551;SDS011;32278;51.810;4.712;2022-07-06T13:32:06;4.63;;;0.75;;
46551;SDS011;32278;51.810;4.712;2022-07-06T13:34:32;3.47;;;0.98;;
46551;SDS011;32278;51.810;4.712;2022-07-06T13:36:58;3.30;;;1.17;;
46551;SDS011;32278;51.810;4.712;2022-07-06T13:39:23;3.15;;;1.20;;
46551;SDS011;32278;51.810;4.712;2022-07-06T13:41:52;2.38;;;0.82;;
46551;SDS011;32278;51.810;4.712;2022-07-06T13:44:18;4.93;;;1.23;;
46551;SDS011;32278;51.810;4.712;2022-07-06T13:46:44;3.90;;;1.40;;
46551;SDS011;32278;51.810;4.712;2022-07-06T13:49:10;3.22;;;1.45;;
46551;SDS011;32278;51.810;4.712;2022-07-06T13:51:36;2.83;;;1.30;;
46551;SDS011;32278;51.810;4.712;2022-07-06T13:54:02;6.72;;;1.75;;
46551;SDS011;32278;51.810;4.712;2022-07-06T13:56:28;3.03;;;1.15;;
46551;SDS011;32278;51.810;4.712;2022-07-06T13:58:54;1.65;;;1.05;;
46551;SDS011;32278;51.810;4.712;2022-07-06T14:01:20;6.63;;;2.10;;
46551;SDS011;32278;51.810;4.712;2022-07-06T14:03:46;4.68;;;1.42;;
46551;SDS011;32278;51.810;4.712;2022-07-06T14:06:12;4.25;;;1.30;;
46551;SDS011;32278;51.810;4.712;2022-07-06T14:08:38;3.97;;;1.50;;
46551;SDS011;32278;51.810;4.712;2022-07-06T14:11:06;3.92;;;1.30;;
46551;SDS011;32278;51.810;4.712;2022-07-06T14:13:33;5.57;;;1.30;;
46551;SDS011;32278;51.810;4.712;2022-07-06T14:16:00;4.57;;;1.40;;
46551;SDS011;32278;51.810;4.712;2022-07-06T14:18:26;10.85;;;2.03;;
46551;SDS011;32278;51.810;4.712;2022-07-06T14:20:52;11.52;;;2.78;;
46551;SDS011;32278;51.810;4.712;2022-07-06T14:23:18;9.68;;;2.63;;
46551;SDS011;32278;51.810;4.712;2022-07-06T14:25:45;8.55;;;2.30;;
46551;SDS011;32278;51.810;4.712;2022-07-06T14:28:11;8.38;;;1.80;;
46551;SDS011;32278;51.810;4.712;2022-07-06T14:30:42;4.03;;;1.70;;
46551;SDS011;32278;51.810;4.712;2022-07-06T14:33:09;4.40;;;2.30;;
46551;SDS011;32278;51.810;4.712;2022-07-06T14:35:40;10.68;;;1.65;;
46551;SDS011;32278;51.810;4.712;2022-07-06T14:38:08;5.70;;;1.67;;
46551;SDS011;32278;51.810;4.712;2022-07-06T14:40:34;4.57;;;1.38;;
46551;SDS011;32278;51.810;4.712;2022-07-06T14:43:02;3.05;;;1.40;;
46551;SDS011;32278;51.810;4.712;2022-07-06T14:45:28;6.82;;;1.90;;
46551;SDS011;32278;51.810;4.712;2022-07-06T14:47:54;5.45;;;1.40;;
46551;SDS011;32278;51.810;4.712;2022-07-06T14:50:20;12.98;;;1.90;;
46551;SDS011;32278;51.810;4.712;2022-07-06T14:52:49;5.32;;;1.58;;
46551;SDS011;32278;51.810;4.712;2022-07-06T14:55:16;5.95;;;1.98;;
46551;SDS011;32278;51.810;4.712;2022-07-06T14:57:42;3.47;;;1.58;;
46551;SDS011;32278;51.810;4.712;2022-07-06T15:00:08;9.60;;;1.80;;
46551;SDS011;32278;51.810;4.712;2022-07-06T15:02:35;5.47;;;1.77;;
46551;SDS011;32278;51.810;4.712;2022-07-06T15:05:00;6.30;;;1.75;;
46551;SDS011;32278;51.810;4.712;2022-07-06T15:07:26;4.57;;;1.75;;
46551;SDS011;32278;51.810;4.712;2022-07-06T15:09:52;4.50;;;1.73;;
46551;SDS011;32278;51.810;4.712;2022-07-06T15:12:17;2.78;;;1.90;;
46551;SDS011;32278;51.810;4.712;2022-07-06T15:14:43;6.38;;;1.73;;
46551;SDS011;32278;51.810;4.712;2022-07-06T15:17:09;3.33;;;1.67;;